sensor_id;sensor_type;location;lat;lon;timestamp;pressure;altitude;pressure_sealevel;temperature;humidity
60642;BME280;46837;52.446;-1.930;2023-07-22T00:00:09;99941.10;;;15.83;64.93
60642;BME280;46837;52.446;-1.930;2023-07-22T00:01:09;99935.74;;;15.86;65.00
60642;BME280;46837;52.446;-1.930;2023-07-22T00:02:09;99936.40;;;15.86;65.05
60642;BME280;46837;52.446;-1.930;2023-07-22T00:03:09;99935.77;;;15.84;65.19
60642;BME280;46837;52.446;-1.930;2023-07-22T00:04:09;99935.45;;;15.81;65.38
60642;BME280;46837;52.446;-1.930;2023-07-22T00:05:09;99931.26;;;15.82;65.46
60642;BME280;46837;52.446;-1.930;2023-07-22T00:06:09;99923.50;;;15.81;65.54
60642;BME280;46837;52.446;-1.930;2023-07-22T00:07:09;99929.30;;;15.70;66.00
60642;BME280;46837;52.446;-1.930;2023-07-22T00:08:09;99925.88;;;15.69;66.20
60642;BME280;46837;52.446;-1.930;2023-07-22T00:09:09;99923.58;;;15.66;66.42
60642;BME280;46837;52.446;-1.930;2023-07-22T00:10:09;99927.87;;;15.62;66.64
60642;BME280;46837;52.446;-1.930;2023-07-22T00:11:09;99925.96;;;15.67;66.54
60642;BME280;46837;52.446;-1.930;2023-07-22T00:12:09;99922.75;;;15.70;66.45
60642;BME280;46837;52.446;-1.930;2023-07-22T00:13:09;99921.20;;;15.70;66.62
60642;BME280;46837;52.446;-1.930;2023-07-22T00:14:09;99921.06;;;15.69;66.75
60642;BME280;46837;52.446;-1.930;2023-07-22T00:15:09;99919.07;;;15.69;66.89
60642;BME280;46837;52.446;-1.930;2023-07-22T00:16:09;99920.82;;;15.70;66.98
60642;BME280;46837;52.446;-1.930;2023-07-22T00:17:09;99918.09;;;15.72;67.04
60642;BME280;46837;52.446;-1.930;2023-07-22T00:18:09;99913.07;;;15.67;67.31
60642;BME280;46837;52.446;-1.930;2023-07-22T00:19:10;99912.80;;;15.60;67.75
60642;BME280;46837;52.446;-1.930;2023-07-22T00:20:09;99910.20;;;15.61;67.77
60642;BME280;46837;52.446;-1.930;2023-07-22T00:21:09;99906.36;;;15.57;68.07
60642;BME280;46837;52.446;-1.930;2023-07-22T00:22:11;99908.03;;;15.54;68.36
60642;BME280;46837;52.446;-1.930;2023-07-22T00:23:09;99907.98;;;15.56;68.24
60642;BME280;46837;52.446;-1.930;2023-07-22T00:24:09;99907.04;;;15.54;68.29
60642;BME280;46837;52.446;-1.930;2023-07-22T00:25:09;99904.55;;;15.57;68.22
60642;BME280;46837;52.446;-1.930;2023-07-22T00:26:09;99905.93;;;15.57;68.33
60642;BME280;46837;52.446;-1.930;2023-07-22T00:27:10;99902.23;;;15.57;68.38
60642;BME280;46837;52.446;-1.930;2023-07-22T00:28:09;99900.05;;;15.58;68.40
60642;BME280;46837;52.446;-1.930;2023-07-22T00:29:09;99901.62;;;15.52;68.88
60642;BME280;46837;52.446;-1.930;2023-07-22T00:30:09;99902.61;;;15.50;69.13
60642;BME280;46837;52.446;-1.930;2023-07-22T00:31:09;99903.03;;;15.54;69.09
60642;BME280;46837;52.446;-1.930;2023-07-22T00:32:10;99901.69;;;15.57;69.06
60642;BME280;46837;52.446;-1.930;2023-07-22T00:33:09;99899.89;;;15.54;69.32
60642;BME280;46837;52.446;-1.930;2023-07-22T00:34:09;99899.26;;;15.57;69.35
60642;BME280;46837;52.446;-1.930;2023-07-22T00:35:09;99899.18;;;15.61;69.28
60642;BME280;46837;52.446;-1.930;2023-07-22T00:36:09;99899.39;;;15.63;69.33
60642;BME280;46837;52.446;-1.930;2023-07-22T00:37:09;99896.64;;;15.61;69.66
60642;BME280;46837;52.446;-1.930;2023-07-22T00:38:09;99897.66;;;15.59;69.95
60642;BME280;46837;52.446;-1.930;2023-07-22T00:39:09;99898.23;;;15.58;70.10
60642;BME280;46837;52.446;-1.930;2023-07-22T00:40:09;99897.01;;;15.59;70.25
60642;BME280;46837;52.446;-1.930;2023-07-22T00:41:09;99892.77;;;15.59;70.40
60642;BME280;46837;52.446;-1.930;2023-07-22T00:42:09;99893.31;;;15.51;70.73
60642;BME280;46837;52.446;-1.930;2023-07-22T00:43:10;99891.27;;;15.49;71.05
60642;BME280;46837;52.446;-1.930;2023-07-22T00:44:09;99893.93;;;15.46;71.22
60642;BME280;46837;52.446;-1.930;2023-07-22T00:45:09;99894.16;;;15.44;71.60
60642;BME280;46837;52.446;-1.930;2023-07-22T00:46:09;99897.77;;;15.42;71.87
60642;BME280;46837;52.446;-1.930;2023-07-22T00:47:09;99890.90;;;15.38;72.09
60642;BME280;46837;52.446;-1.930;2023-07-22T00:48:09;99894.01;;;15.42;72.13
60642;BME280;46837;52.446;-1.930;2023-07-22T00:49:09;99893.54;;;15.39;72.44
60642;BME280;46837;52.446;-1.930;2023-07-22T00:50:09;99892.52;;;15.35;72.68
60642;BME280;46837;52.446;-1.930;2023-07-22T00:51:09;99892.42;;;15.34;72.89
60642;BME280;46837;52.446;-1.930;2023-07-22T00:52:09;99893.53;;;15.31;73.02
60642;BME280;46837;52.446;-1.930;2023-07-22T00:53:09;99892.47;;;15.30;73.32
60642;BME280;46837;52.446;-1.930;2023-07-22T00:54:09;99894.41;;;15.32;73.46
60642;BME280;46837;52.446;-1.930;2023-07-22T00:55:09;99894.02;;;15.32;73.46
60642;BME280;46837;52.446;-1.930;2023-07-22T00:56:09;99889.85;;;15.36;73.31
60642;BME280;46837;52.446;-1.930;2023-07-22T00:57:09;99889.02;;;15.31;73.56
60642;BME280;46837;52.446;-1.930;2023-07-22T00:58:09;99894.36;;;15.29;73.84
60642;BME280;46837;52.446;-1.930;2023-07-22T00:59:09;99890.68;;;15.31;74.00
60642;BME280;46837;52.446;-1.930;2023-07-22T01:00:09;99886.86;;;15.32;74.05
60642;BME280;46837;52.446;-1.930;2023-07-22T01:01:09;99887.15;;;15.37;73.72
60642;BME280;46837;52.446;-1.930;2023-07-22T01:02:09;99886.84;;;15.33;73.94
60642;BME280;46837;52.446;-1.930;2023-07-22T01:03:09;99888.07;;;15.32;74.07
60642;BME280;46837;52.446;-1.930;2023-07-22T01:04:09;99883.61;;;15.30;74.18
60642;BME280;46837;52.446;-1.930;2023-07-22T01:05:09;99884.98;;;15.30;74.26
60642;BME280;46837;52.446;-1.930;2023-07-22T01:06:09;99884.08;;;15.33;74.29
60642;BME280;46837;52.446;-1.930;2023-07-22T01:07:09;99885.46;;;15.38;74.22
60642;BME280;46837;52.446;-1.930;2023-07-22T01:08:09;99880.67;;;15.35;74.31
60642;BME280;46837;52.446;-1.930;2023-07-22T01:09:10;99878.58;;;15.37;74.34
60642;BME280;46837;52.446;-1.930;2023-07-22T01:10:09;99878.65;;;15.40;74.35
60642;BME280;46837;52.446;-1.930;2023-07-22T01:11:09;99876.36;;;15.37;74.48
60642;BME280;46837;52.446;-1.930;2023-07-22T01:12:11;99870.77;;;15.35;74.37
60642;BME280;46837;52.446;-1.930;2023-07-22T01:13:09;99866.21;;;15.32;74.56
60642;BME280;46837;52.446;-1.930;2023-07-22T01:14:09;99867.83;;;15.26;74.78
60642;BME280;46837;52.446;-1.930;2023-07-22T01:15:10;99865.70;;;15.25;75.00
60642;BME280;46837;52.446;-1.930;2023-07-22T01:16:09;99865.42;;;15.17;75.07
60642;BME280;46837;52.446;-1.930;2023-07-22T01:17:11;99863.68;;;15.22;75.01
60642;BME280;46837;52.446;-1.930;2023-07-22T01:18:09;99856.88;;;15.26;74.80
60642;BME280;46837;52.446;-1.930;2023-07-22T01:19:09;99856.32;;;15.27;74.74
60642;BME280;46837;52.446;-1.930;2023-07-22T01:20:09;99858.75;;;15.25;74.88
60642;BME280;46837;52.446;-1.930;2023-07-22T01:21:09;99848.11;;;15.26;74.66
60642;BME280;46837;52.446;-1.930;2023-07-22T01:22:10;99848.60;;;15.21;74.81
60642;BME280;46837;52.446;-1.930;2023-07-22T01:23:09;99845.11;;;15.23;75.04
60642;BME280;46837;52.446;-1.930;2023-07-22T01:24:09;99846.80;;;15.26;75.01
60642;BME280;46837;52.446;-1.930;2023-07-22T01:25:09;99841.92;;;15.25;74.90
60642;BME280;46837;52.446;-1.930;2023-07-22T01:26:09;99834.64;;;15.25;74.79
60642;BME280;46837;52.446;-1.930;2023-07-22T01:27:11;99834.98;;;15.25;74.94
60642;BME280;46837;52.446;-1.930;2023-07-22T01:28:11;99834.59;;;15.26;74.85
60642;BME280;46837;52.446;-1.930;2023-07-22T01:29:09;99837.05;;;15.29;74.68
60642;BME280;46837;52.446;-1.930;2023-07-22T01:30:09;99837.11;;;15.26;74.78
60642;BME280;46837;52.446;-1.930;2023-07-22T01:31:09;99838.74;;;15.30;74.78
60642;BME280;46837;52.446;-1.930;2023-07-22T01:32:09;99839.41;;;15.32;74.74
60642;BME280;46837;52.446;-1.930;2023-07-22T01:33:09;99837.63;;;15.34;74.60
60642;BME280;46837;52.446;-1.930;2023-07-22T01:34:09;99833.41;;;15.29;74.79
60642;BME280;46837;52.446;-1.930;2023-07-22T01:35:09;99829.07;;;15.28;74.73
60642;BME280;46837;52.446;-1.930;2023-07-22T01:36:09;99829.04;;;15.25;74.85
60642;BME280;46837;52.446;-1.930;2023-07-22T01:37:09;99824.40;;;15.20;74.91
60642;BME280;46837;52.446;-1.930;2023-07-22T01:38:09;99825.84;;;15.18;75.07
60642;BME280;46837;52.446;-1.930;2023-07-22T01:39:10;99821.82;;;15.15;75.22
60642;BME280;46837;52.446;-1.930;2023-07-22T01:40:13;99821.98;;;15.07;75.44
60642;BME280;46837;52.446;-1.930;2023-07-22T01:41:09;99820.95;;;15.06;75.58
60642;BME280;46837;52.446;-1.930;2023-07-22T01:42:09;99825.91;;;15.01;75.60
60642;BME280;46837;52.446;-1.930;2023-07-22T01:43:09;99826.86;;;15.02;75.47
60642;BME280;46837;52.446;-1.930;2023-07-22T01:44:09;99820.73;;;15.04;75.48
60642;BME280;46837;52.446;-1.930;2023-07-22T01:45:10;99820.74;;;15.09;75.16
60642;BME280;46837;52.446;-1.930;2023-07-22T01:46:09;99822.93;;;15.13;74.96
60642;BME280;46837;52.446;-1.930;2023-07-22T01:47:09;99820.26;;;15.08;75.04
60642;BME280;46837;52.446;-1.930;2023-07-22T01:48:09;99821.12;;;15.12;75.11
60642;BME280;46837;52.446;-1.930;2023-07-22T01:49:11;99819.26;;;15.14;74.92
60642;BME280;46837;52.446;-1.930;2023-07-22T01:50:10;99816.13;;;15.11;74.89
60642;BME280;46837;52.446;-1.930;2023-07-22T01:51:09;99817.71;;;15.12;74.90
60642;BME280;46837;52.446;-1.930;2023-07-22T01:52:09;99813.30;;;15.14;74.65
60642;BME280;46837;52.446;-1.930;2023-07-22T01:53:09;99813.18;;;15.13;74.84
60642;BME280;46837;52.446;-1.930;2023-07-22T01:54:09;99813.15;;;15.09;74.92
60642;BME280;46837;52.446;-1.930;2023-07-22T01:55:09;99809.40;;;15.12;74.94
60642;BME280;46837;52.446;-1.930;2023-07-22T01:56:09;99804.07;;;15.11;74.75
60642;BME280;46837;52.446;-1.930;2023-07-22T01:57:09;99800.81;;;15.12;74.71
60642;BME280;46837;52.446;-1.930;2023-07-22T01:58:09;99803.52;;;15.11;74.60
60642;BME280;46837;52.446;-1.930;2023-07-22T01:59:09;99799.63;;;15.10;74.72
60642;BME280;46837;52.446;-1.930;2023-07-22T02:00:09;99799.56;;;15.11;74.70
60642;BME280;46837;52.446;-1.930;2023-07-22T02:01:09;99797.02;;;15.06;74.90
60642;BME280;46837;52.446;-1.930;2023-07-22T02:02:09;99794.95;;;15.06;74.97
60642;BME280;46837;52.446;-1.930;2023-07-22T02:03:09;99793.93;;;15.07;74.85
60642;BME280;46837;52.446;-1.930;2023-07-22T02:04:09;99794.04;;;15.06;74.91
60642;BME280;46837;52.446;-1.930;2023-07-22T02:05:09;99793.28;;;15.06;74.97
60642;BME280;46837;52.446;-1.930;2023-07-22T02:06:09;99789.86;;;15.06;74.90
60642;BME280;46837;52.446;-1.930;2023-07-22T02:07:09;99789.47;;;15.02;75.16
60642;BME280;46837;52.446;-1.930;2023-07-22T02:08:09;99790.64;;;15.01;75.17
60642;BME280;46837;52.446;-1.930;2023-07-22T02:09:11;99791.18;;;14.96;75.38
60642;BME280;46837;52.446;-1.930;2023-07-22T02:10:09;99792.69;;;14.92;75.48
60642;BME280;46837;52.446;-1.930;2023-07-22T02:11:09;99788.73;;;14.90;75.58
60642;BME280;46837;52.446;-1.930;2023-07-22T02:12:09;99793.35;;;14.87;75.68
60642;BME280;46837;52.446;-1.930;2023-07-22T02:13:09;99789.79;;;14.89;75.65
60642;BME280;46837;52.446;-1.930;2023-07-22T02:14:09;99791.41;;;14.91;75.64
60642;BME280;46837;52.446;-1.930;2023-07-22T02:15:09;99789.66;;;14.92;75.61
60642;BME280;46837;52.446;-1.930;2023-07-22T02:16:09;99788.27;;;14.80;76.17
60642;BME280;46837;52.446;-1.930;2023-07-22T02:17:09;99786.57;;;14.82;76.26
60642;BME280;46837;52.446;-1.930;2023-07-22T02:18:09;99784.48;;;14.88;76.02
60642;BME280;46837;52.446;-1.930;2023-07-22T02:19:09;99781.54;;;14.86;76.11
60642;BME280;46837;52.446;-1.930;2023-07-22T02:20:09;99780.02;;;14.91;75.89
60642;BME280;46837;52.446;-1.930;2023-07-22T02:21:09;99777.08;;;14.95;75.77
60642;BME280;46837;52.446;-1.930;2023-07-22T02:22:09;99772.77;;;14.93;76.09
60642;BME280;46837;52.446;-1.930;2023-07-22T02:23:09;99769.15;;;14.92;76.10
60642;BME280;46837;52.446;-1.930;2023-07-22T02:24:09;99770.39;;;14.91;76.06
60642;BME280;46837;52.446;-1.930;2023-07-22T02:25:09;99768.78;;;14.88;76.13
60642;BME280;46837;52.446;-1.930;2023-07-22T02:26:09;99771.94;;;14.93;75.94
60642;BME280;46837;52.446;-1.930;2023-07-22T02:27:09;99764.96;;;14.92;75.89
60642;BME280;46837;52.446;-1.930;2023-07-22T02:28:09;99763.60;;;14.87;75.95
60642;BME280;46837;52.446;-1.930;2023-07-22T02:29:09;99763.64;;;14.82;76.43
60642;BME280;46837;52.446;-1.930;2023-07-22T02:30:09;99760.70;;;14.73;76.66
60642;BME280;46837;52.446;-1.930;2023-07-22T02:31:09;99760.85;;;14.74;76.76
60642;BME280;46837;52.446;-1.930;2023-07-22T02:32:09;99756.82;;;14.77;76.53
60642;BME280;46837;52.446;-1.930;2023-07-22T02:33:09;99754.23;;;14.77;76.50
60642;BME280;46837;52.446;-1.930;2023-07-22T02:34:09;99752.75;;;14.71;76.62
60642;BME280;46837;52.446;-1.930;2023-07-22T02:35:09;99754.82;;;14.70;76.71
60642;BME280;46837;52.446;-1.930;2023-07-22T02:36:09;99753.76;;;14.65;77.01
60642;BME280;46837;52.446;-1.930;2023-07-22T02:37:09;99755.02;;;14.65;76.95
60642;BME280;46837;52.446;-1.930;2023-07-22T02:38:09;99754.51;;;14.66;76.76
60642;BME280;46837;52.446;-1.930;2023-07-22T02:39:09;99756.04;;;14.61;76.96
60642;BME280;46837;52.446;-1.930;2023-07-22T02:40:13;99751.29;;;14.65;76.80
60642;BME280;46837;52.446;-1.930;2023-07-22T02:41:09;99751.65;;;14.66;76.69
60642;BME280;46837;52.446;-1.930;2023-07-22T02:42:09;99746.50;;;14.63;76.74
60642;BME280;46837;52.446;-1.930;2023-07-22T02:43:09;99744.46;;;14.67;76.59
60642;BME280;46837;52.446;-1.930;2023-07-22T02:44:09;99747.28;;;14.64;76.56
60642;BME280;46837;52.446;-1.930;2023-07-22T02:45:09;99744.20;;;14.60;76.82
60642;BME280;46837;52.446;-1.930;2023-07-22T02:46:10;99744.49;;;14.56;76.92
60642;BME280;46837;52.446;-1.930;2023-07-22T02:47:09;99744.42;;;14.53;77.07
60642;BME280;46837;52.446;-1.930;2023-07-22T02:48:09;99746.80;;;14.56;76.90
60642;BME280;46837;52.446;-1.930;2023-07-22T02:49:09;99744.85;;;14.57;76.72
60642;BME280;46837;52.446;-1.930;2023-07-22T02:50:09;99746.92;;;14.55;76.88
60642;BME280;46837;52.446;-1.930;2023-07-22T02:51:09;99742.80;;;14.55;76.92
60642;BME280;46837;52.446;-1.930;2023-07-22T02:52:09;99745.56;;;14.54;76.97
60642;BME280;46837;52.446;-1.930;2023-07-22T02:53:09;99741.48;;;14.58;76.79
60642;BME280;46837;52.446;-1.930;2023-07-22T02:54:09;99743.64;;;14.54;76.96
60642;BME280;46837;52.446;-1.930;2023-07-22T02:55:16;99741.32;;;14.52;77.14
60642;BME280;46837;52.446;-1.930;2023-07-22T02:56:09;99745.94;;;14.55;77.01
60642;BME280;46837;52.446;-1.930;2023-07-22T02:57:09;99737.31;;;14.50;77.13
60642;BME280;46837;52.446;-1.930;2023-07-22T02:58:09;99737.97;;;14.50;77.32
60642;BME280;46837;52.446;-1.930;2023-07-22T02:59:09;99737.48;;;14.52;77.35
60642;BME280;46837;52.446;-1.930;2023-07-22T03:00:10;99733.67;;;14.48;77.58
60642;BME280;46837;52.446;-1.930;2023-07-22T03:01:09;99732.22;;;14.50;77.29
60642;BME280;46837;52.446;-1.930;2023-07-22T03:02:09;99736.64;;;14.55;77.17
60642;BME280;46837;52.446;-1.930;2023-07-22T03:03:09;99734.10;;;14.58;76.99
60642;BME280;46837;52.446;-1.930;2023-07-22T03:04:09;99730.78;;;14.62;76.90
60642;BME280;46837;52.446;-1.930;2023-07-22T03:05:10;99730.67;;;14.60;76.95
60642;BME280;46837;52.446;-1.930;2023-07-22T03:06:09;99724.92;;;14.58;77.06
60642;BME280;46837;52.446;-1.930;2023-07-22T03:07:09;99723.23;;;14.57;76.99
60642;BME280;46837;52.446;-1.930;2023-07-22T03:08:09;99720.32;;;14.54;77.19
60642;BME280;46837;52.446;-1.930;2023-07-22T03:09:09;99717.36;;;14.52;77.19
60642;BME280;46837;52.446;-1.930;2023-07-22T03:10:09;99718.08;;;14.44;77.59
60642;BME280;46837;52.446;-1.930;2023-07-22T03:11:09;99718.29;;;14.47;77.59
60642;BME280;46837;52.446;-1.930;2023-07-22T03:12:09;99715.54;;;14.47;77.50
60642;BME280;46837;52.446;-1.930;2023-07-22T03:13:09;99716.71;;;14.51;77.38
60642;BME280;46837;52.446;-1.930;2023-07-22T03:14:09;99715.10;;;14.52;77.35
60642;BME280;46837;52.446;-1.930;2023-07-22T03:15:11;99714.76;;;14.52;77.31
60642;BME280;46837;52.446;-1.930;2023-07-22T03:16:09;99712.51;;;14.52;77.40
60642;BME280;46837;52.446;-1.930;2023-07-22T03:17:09;99714.96;;;14.56;77.34
60642;BME280;46837;52.446;-1.930;2023-07-22T03:18:09;99713.22;;;14.55;77.20
60642;BME280;46837;52.446;-1.930;2023-07-22T03:19:09;99714.77;;;14.54;77.40
60642;BME280;46837;52.446;-1.930;2023-07-22T03:20:13;99711.61;;;14.59;77.24
60642;BME280;46837;52.446;-1.930;2023-07-22T03:21:09;99713.22;;;14.55;77.31
60642;BME280;46837;52.446;-1.930;2023-07-22T03:22:09;99710.46;;;14.55;77.32
60642;BME280;46837;52.446;-1.930;2023-07-22T03:23:09;99709.59;;;14.57;77.28
60642;BME280;46837;52.446;-1.930;2023-07-22T03:24:09;99714.21;;;14.55;77.44
60642;BME280;46837;52.446;-1.930;2023-07-22T03:25:13;99713.03;;;14.59;77.31
60642;BME280;46837;52.446;-1.930;2023-07-22T03:26:09;99714.61;;;14.60;77.24
60642;BME280;46837;52.446;-1.930;2023-07-22T03:27:09;99711.27;;;14.59;77.25
60642;BME280;46837;52.446;-1.930;2023-07-22T03:28:09;99714.63;;;14.61;77.26
60642;BME280;46837;52.446;-1.930;2023-07-22T03:29:09;99713.40;;;14.62;77.08
60642;BME280;46837;52.446;-1.930;2023-07-22T03:30:11;99714.66;;;14.54;77.77
60642;BME280;46837;52.446;-1.930;2023-07-22T03:31:09;99712.62;;;14.57;77.52
60642;BME280;46837;52.446;-1.930;2023-07-22T03:32:09;99712.16;;;14.61;77.43
60642;BME280;46837;52.446;-1.930;2023-07-22T03:33:09;99711.36;;;14.63;77.29
60642;BME280;46837;52.446;-1.930;2023-07-22T03:34:09;99713.90;;;14.59;77.52
60642;BME280;46837;52.446;-1.930;2023-07-22T03:35:09;99712.38;;;14.56;77.72
60642;BME280;46837;52.446;-1.930;2023-07-22T03:36:09;99712.49;;;14.56;77.73
60642;BME280;46837;52.446;-1.930;2023-07-22T03:37:09;99713.21;;;14.60;77.57
60642;BME280;46837;52.446;-1.930;2023-07-22T03:38:09;99716.77;;;14.61;77.51
60642;BME280;46837;52.446;-1.930;2023-07-22T03:39:09;99712.10;;;14.56;77.88
60642;BME280;46837;52.446;-1.930;2023-07-22T03:40:13;99712.61;;;14.58;77.83
60642;BME280;46837;52.446;-1.930;2023-07-22T03:41:09;99711.75;;;14.52;78.14
60642;BME280;46837;52.446;-1.930;2023-07-22T03:42:09;99708.61;;;14.50;78.27
60642;BME280;46837;52.446;-1.930;2023-07-22T03:43:09;99707.84;;;14.47;78.48
60642;BME280;46837;52.446;-1.930;2023-07-22T03:44:09;99708.23;;;14.54;78.30
60642;BME280;46837;52.446;-1.930;2023-07-22T03:45:09;99713.71;;;14.55;78.33
60642;BME280;46837;52.446;-1.930;2023-07-22T03:46:09;99712.72;;;14.55;78.21
60642;BME280;46837;52.446;-1.930;2023-07-22T03:47:09;99711.47;;;14.54;78.27
60642;BME280;46837;52.446;-1.930;2023-07-22T03:48:09;99712.76;;;14.49;78.62
60642;BME280;46837;52.446;-1.930;2023-07-22T03:49:09;99715.46;;;14.56;78.34
60642;BME280;46837;52.446;-1.930;2023-07-22T03:50:09;99713.28;;;14.55;78.28
60642;BME280;46837;52.446;-1.930;2023-07-22T03:51:09;99713.10;;;14.60;78.25
60642;BME280;46837;52.446;-1.930;2023-07-22T03:52:09;99709.70;;;14.66;77.97
60642;BME280;46837;52.446;-1.930;2023-07-22T03:53:09;99711.24;;;14.68;77.93
60642;BME280;46837;52.446;-1.930;2023-07-22T03:54:09;99711.77;;;14.71;77.70
60642;BME280;46837;52.446;-1.930;2023-07-22T03:55:09;99711.59;;;14.72;77.59
60642;BME280;46837;52.446;-1.930;2023-07-22T03:56:09;99712.36;;;14.72;77.74
60642;BME280;46837;52.446;-1.930;2023-07-22T03:57:09;99709.41;;;14.67;77.99
60642;BME280;46837;52.446;-1.930;2023-07-22T03:58:09;99708.99;;;14.67;77.89
60642;BME280;46837;52.446;-1.930;2023-07-22T03:59:09;99704.07;;;14.66;78.10
60642;BME280;46837;52.446;-1.930;2023-07-22T04:00:13;99706.39;;;14.71;77.96
60642;BME280;46837;52.446;-1.930;2023-07-22T04:01:12;99702.25;;;14.74;77.74
60642;BME280;46837;52.446;-1.930;2023-07-22T04:02:09;99702.54;;;14.76;77.70
60642;BME280;46837;52.446;-1.930;2023-07-22T04:03:09;99702.94;;;14.75;77.73
60642;BME280;46837;52.446;-1.930;2023-07-22T04:04:09;99708.98;;;14.78;77.73
60642;BME280;46837;52.446;-1.930;2023-07-22T04:05:09;99707.54;;;14.79;77.64
60642;BME280;46837;52.446;-1.930;2023-07-22T04:06:09;99701.88;;;14.76;77.74
60642;BME280;46837;52.446;-1.930;2023-07-22T04:07:10;99697.25;;;14.79;77.67
60642;BME280;46837;52.446;-1.930;2023-07-22T04:08:09;99697.93;;;14.78;77.76
60642;BME280;46837;52.446;-1.930;2023-07-22T04:09:09;99690.36;;;14.82;77.51
60642;BME280;46837;52.446;-1.930;2023-07-22T04:10:09;99687.95;;;14.81;77.52
60642;BME280;46837;52.446;-1.930;2023-07-22T04:11:09;99686.75;;;14.78;77.69
60642;BME280;46837;52.446;-1.930;2023-07-22T04:12:09;99686.59;;;14.76;77.90
60642;BME280;46837;52.446;-1.930;2023-07-22T04:13:09;99686.44;;;14.78;77.79
60642;BME280;46837;52.446;-1.930;2023-07-22T04:14:09;99682.18;;;14.79;77.72
60642;BME280;46837;52.446;-1.930;2023-07-22T04:15:09;99677.85;;;14.76;77.75
60642;BME280;46837;52.446;-1.930;2023-07-22T04:16:09;99676.38;;;14.75;77.97
60642;BME280;46837;52.446;-1.930;2023-07-22T04:17:09;99672.78;;;14.71;78.17
60642;BME280;46837;52.446;-1.930;2023-07-22T04:18:09;99672.69;;;14.67;78.26
60642;BME280;46837;52.446;-1.930;2023-07-22T04:19:09;99669.91;;;14.72;78.05
60642;BME280;46837;52.446;-1.930;2023-07-22T04:20:09;99673.45;;;14.74;77.96
60642;BME280;46837;52.446;-1.930;2023-07-22T04:21:09;99667.27;;;14.72;78.03
60642;BME280;46837;52.446;-1.930;2023-07-22T04:22:09;99662.61;;;14.67;78.15
60642;BME280;46837;52.446;-1.930;2023-07-22T04:23:09;99664.84;;;14.70;78.21
60642;BME280;46837;52.446;-1.930;2023-07-22T04:24:09;99664.93;;;14.73;77.94
60642;BME280;46837;52.446;-1.930;2023-07-22T04:25:09;99670.87;;;14.68;77.98
60642;BME280;46837;52.446;-1.930;2023-07-22T04:26:10;99668.75;;;14.70;77.86
60642;BME280;46837;52.446;-1.930;2023-07-22T04:27:09;99667.48;;;14.72;77.63
60642;BME280;46837;52.446;-1.930;2023-07-22T04:28:09;99666.96;;;14.68;77.75
60642;BME280;46837;52.446;-1.930;2023-07-22T04:29:09;99659.20;;;14.69;77.85
60642;BME280;46837;52.446;-1.930;2023-07-22T04:30:09;99651.43;;;14.72;77.60
60642;BME280;46837;52.446;-1.930;2023-07-22T04:31:09;99650.12;;;14.71;77.71
60642;BME280;46837;52.446;-1.930;2023-07-22T04:32:09;99647.12;;;14.73;77.52
60642;BME280;46837;52.446;-1.930;2023-07-22T04:33:13;99646.76;;;14.71;77.47
60642;BME280;46837;52.446;-1.930;2023-07-22T04:34:10;99645.27;;;14.70;77.61
60642;BME280;46837;52.446;-1.930;2023-07-22T04:35:10;99641.53;;;14.72;77.48
60642;BME280;46837;52.446;-1.930;2023-07-22T04:36:09;99643.28;;;14.72;77.39
60642;BME280;46837;52.446;-1.930;2023-07-22T04:37:09;99640.99;;;14.69;77.56
60642;BME280;46837;52.446;-1.930;2023-07-22T04:38:09;99646.11;;;14.59;77.94
60642;BME280;46837;52.446;-1.930;2023-07-22T04:39:09;99643.84;;;14.60;77.95
60642;BME280;46837;52.446;-1.930;2023-07-22T04:40:09;99646.46;;;14.63;77.94
60642;BME280;46837;52.446;-1.930;2023-07-22T04:41:09;99644.73;;;14.67;77.75
60642;BME280;46837;52.446;-1.930;2023-07-22T04:42:09;99644.39;;;14.69;77.64
60642;BME280;46837;52.446;-1.930;2023-07-22T04:43:09;99644.50;;;14.72;77.62
60642;BME280;46837;52.446;-1.930;2023-07-22T04:44:09;99643.51;;;14.72;77.62
60642;BME280;46837;52.446;-1.930;2023-07-22T04:45:09;99641.80;;;14.74;77.52
60642;BME280;46837;52.446;-1.930;2023-07-22T04:46:09;99644.54;;;14.75;77.49
60642;BME280;46837;52.446;-1.930;2023-07-22T04:47:09;99642.00;;;14.75;77.55
60642;BME280;46837;52.446;-1.930;2023-07-22T04:48:09;99644.13;;;14.78;77.42
60642;BME280;46837;52.446;-1.930;2023-07-22T04:49:09;99641.54;;;14.78;77.48
60642;BME280;46837;52.446;-1.930;2023-07-22T04:50:11;99641.71;;;14.78;77.57
60642;BME280;46837;52.446;-1.930;2023-07-22T04:51:09;99641.42;;;14.79;77.52
60642;BME280;46837;52.446;-1.930;2023-07-22T04:52:09;99640.75;;;14.80;77.62
60642;BME280;46837;52.446;-1.930;2023-07-22T04:53:09;99638.27;;;14.82;77.47
60642;BME280;46837;52.446;-1.930;2023-07-22T04:54:09;99637.40;;;14.74;77.87
60642;BME280;46837;52.446;-1.930;2023-07-22T04:55:11;99636.07;;;14.73;78.06
60642;BME280;46837;52.446;-1.930;2023-07-22T04:56:09;99633.27;;;14.74;78.07
60642;BME280;46837;52.446;-1.930;2023-07-22T04:57:09;99633.11;;;14.74;78.14
60642;BME280;46837;52.446;-1.930;2023-07-22T04:58:09;99633.85;;;14.76;78.02
60642;BME280;46837;52.446;-1.930;2023-07-22T04:59:09;99634.70;;;14.74;78.01
60642;BME280;46837;52.446;-1.930;2023-07-22T05:00:09;99631.05;;;14.75;78.21
60642;BME280;46837;52.446;-1.930;2023-07-22T05:01:09;99633.88;;;14.77;78.29
60642;BME280;46837;52.446;-1.930;2023-07-22T05:02:09;99633.58;;;14.81;78.06
60642;BME280;46837;52.446;-1.930;2023-07-22T05:03:09;99630.25;;;14.85;77.90
60642;BME280;46837;52.446;-1.930;2023-07-22T05:04:09;99631.71;;;14.88;77.81
60642;BME280;46837;52.446;-1.930;2023-07-22T05:05:09;99631.23;;;14.87;77.94
60642;BME280;46837;52.446;-1.930;2023-07-22T05:06:09;99629.37;;;14.89;77.81
60642;BME280;46837;52.446;-1.930;2023-07-22T05:07:09;99632.14;;;14.84;78.14
60642;BME280;46837;52.446;-1.930;2023-07-22T05:08:10;99631.59;;;14.83;78.04
60642;BME280;46837;52.446;-1.930;2023-07-22T05:09:09;99629.29;;;14.83;78.11
60642;BME280;46837;52.446;-1.930;2023-07-22T05:10:09;99633.96;;;14.85;77.97
60642;BME280;46837;52.446;-1.930;2023-07-22T05:11:09;99628.52;;;14.85;78.02
60642;BME280;46837;52.446;-1.930;2023-07-22T05:12:09;99630.44;;;14.78;78.40
60642;BME280;46837;52.446;-1.930;2023-07-22T05:13:09;99627.04;;;14.83;78.24